DE-0038 weather

Utscheid Segelflugplatz
Bitburg, Rhineland-Palatinate, Germany

Public forecast

Using degrees Celsius for public forecast. Weather courtesy of forecast.io.

METAR (pilot weather report)

Report is more than 2 hours old.

Closest report is Spangdahlem Air Base, 13.6 nm (25.2 km) E. Retrieved 2019/04/26 13:26 UTC (3 hours ago):

ETAD 261326Z AUTO 25005KT 9999 FEW031 BKN055 BKN140 13/05 A2996 RMK AO2 SLP139 $

TAF (pilot weather forecast)

Closest forecast is Spangdahlem Air Base, 13.6 nm (25.2 km) E. Retrieved 2019/04/26 12:06 UTC (4 hours ago):

TAF ETAD 261200Z 2612/2718 25009KT 9999 BKN025 BKN100 QNH2991INS BECMG 2612/2613 24006KT 9999 SCT045 BKN110 QNH2992INS BECMG 2703/2704 23012G18KT 9000 -SHRA BKN006 OVC015 QNH2991INS BECMG 2711/2712 27015G25KT 9999 NSW SCT045 BKN110 QNH2991INS TX14/2615Z TN07/2701Z